Greentop, MO (63546)

9:21 PM CDT on August 27, 2016 (GMT -0500)
APRSWXNET | | Change Station

Elev 931 ft 40.52 °N, 92.52 °W | Updated 27 minutes ago

Clear
Clear
74 °F
Feels Like 72 °F
N
0
Wind Variable Wind from West
Gusts 0.0 mph

Today
High -- | Low -- °F
--% Chance of Precip.
Yesterday
High -- | Low -- °F
Precip. -- in
Pressure 30.05 in
Visibility 10.0 miles
Clouds Clear
Heat Index 72 °F
Dew Point 72 °F
Humidity 92%
Rainfall in
Snow Depth Not available.
6:33 AM 7:48 PM
Waning Crescent, 19% visible
METAR KIRK 280155Z AUTO 00000KT 10SM CLR 23/21 A3006 RMK AO2 SLP174 T02330211 $
Pressure 30.05 in
Visibility 10.0 miles
Clouds Clear
Heat Index 72 °F
Dew Point 72 °F
Humidity 92%
Rainfall in
Snow Depth Not available.
6:33 AM 7:48 PM
Waning Crescent, 19% visible
METAR KIRK 280155Z AUTO 00000KT 10SM CLR 23/21 A3006 RMK AO2 SLP174 T02330211 $

10-Day Weather Forecast

Almanac

Astronomy

Aug. 27, 2016 Rise Set
Actual Time
Civil Twilight
Nautical Twilight
Astronomical Twilight
Moon
Length of Visible Light
Length of Day
Tomorrow will be .
, % of the Moon is Illuminated

Today's Extremes

State Highs State Lows

Community

WunderPhotos

Upload Photos

1,935,496 photos uploaded!

WunderBlog® & News

Nearby

Air Quality

  Air Quality AQ Index Pollutant
Not available.

Snow Depth

Station Depth Elevation

Earthquake Activity

City Distance Mag. Time & Date
Minimum magnitude displayed is 2.5.

Coastal Water Temperatures

Place Temperature

Stations

Nearby Weather Stations

Station Location Temp. Windchill Dew Point Humidity Wind Precip. Elev Updated Type
                   

Watches & Warnings

There are currently no watches in effect.